createdAt,value
2017-04-18T00:00:14.982Z,0
2017-04-18T00:01:26.241Z,0
2017-04-18T00:02:37.477Z,0
2017-04-18T00:03:49.088Z,0
2017-04-18T00:05:00.129Z,0
2017-04-18T00:06:11.166Z,0
2017-04-18T00:07:22.205Z,0
2017-04-18T00:08:33.238Z,0
2017-04-18T00:09:44.280Z,0
2017-04-18T00:10:55.519Z,0
2017-04-18T00:12:06.549Z,0
2017-04-18T00:13:17.585Z,0
2017-04-18T00:14:28.674Z,0
2017-04-18T00:15:39.709Z,0
2017-04-18T00:16:50.740Z,0
2017-04-18T00:18:01.782Z,0
2017-04-18T00:19:12.844Z,0
2017-04-18T00:20:23.871Z,0
2017-04-18T00:21:35.317Z,0
2017-04-18T00:22:46.354Z,0
2017-04-18T00:23:57.398Z,0
2017-04-18T00:25:08.492Z,0
2017-04-18T00:26:19.525Z,0
2017-04-18T00:27:30.573Z,0
2017-04-18T00:28:41.607Z,0
2017-04-18T00:29:52.783Z,0
2017-04-18T00:31:04.031Z,0
2017-04-18T00:32:15.072Z,0
2017-04-18T00:33:26.111Z,0
2017-04-18T00:34:37.140Z,0
2017-04-18T00:35:48.180Z,0
2017-04-18T00:36:59.212Z,0
2017-04-18T00:38:10.244Z,0
2017-04-18T00:39:21.290Z,0
2017-04-18T00:40:32.372Z,0
2017-04-18T00:41:43.408Z,0
2017-04-18T00:42:54.449Z,0
2017-04-18T00:44:05.689Z,0
2017-04-18T00:45:16.733Z,0
2017-04-18T00:46:27.766Z,0
2017-04-18T00:47:38.812Z,0
2017-04-18T00:48:50.058Z,0
2017-04-18T00:50:01.296Z,0
2017-04-18T00:51:12.386Z,0
2017-04-18T00:52:23.706Z,0
2017-04-18T00:53:34.897Z,0
2017-04-18T00:54:45.927Z,0
2017-04-18T00:55:56.964Z,0
2017-04-18T00:57:08.203Z,0
2017-04-18T00:58:19.249Z,0
2017-04-18T00:59:30.286Z,0
2017-04-18T01:00:41.327Z,0
2017-04-18T01:01:52.609Z,0
2017-04-18T01:03:03.665Z,0
2017-04-18T01:04:14.706Z,0
2017-04-18T01:05:25.941Z,0
2017-04-18T01:06:36.983Z,0
2017-04-18T01:07:48.015Z,0
2017-04-18T01:08:59.454Z,0
2017-04-18T01:10:10.685Z,0
2017-04-18T01:11:21.719Z,0
2017-04-18T01:12:32.756Z,0
2017-04-18T01:13:43.796Z,0
2017-04-18T01:14:54.842Z,0
2017-04-18T01:16:05.867Z,0
2017-04-18T01:17:17.043Z,0
2017-04-18T01:18:28.159Z,0
2017-04-18T01:19:39.571Z,0
2017-04-18T01:20:50.609Z,0
2017-04-18T01:22:01.667Z,0
2017-04-18T01:23:12.701Z,0
2017-04-18T01:24:23.730Z,0
2017-04-18T01:25:34.764Z,0
2017-04-18T01:26:45.809Z,0
2017-04-18T01:27:56.843Z,0
2017-04-18T01:29:07.926Z,0
2017-04-18T01:30:18.971Z,0
2017-04-18T01:31:30.218Z,0
2017-04-18T01:32:41.256Z,0
2017-04-18T01:33:52.282Z,0
2017-04-18T01:35:03.324Z,0
2017-04-18T01:36:14.367Z,0
2017-04-18T01:37:25.603Z,0
2017-04-18T01:38:36.638Z,0
2017-04-18T01:39:47.721Z,0
2017-04-18T01:40:58.758Z,0
2017-04-18T01:42:09.813Z,0
2017-04-18T01:43:21.050Z,0
2017-04-18T01:44:32.155Z,0
2017-04-18T01:45:43.489Z,0
2017-04-18T01:46:55.125Z,0
2017-04-18T01:48:06.161Z,0
2017-04-18T01:49:17.213Z,0
2017-04-18T01:50:28.237Z,0
2017-04-18T01:51:39.267Z,0
2017-04-18T01:52:50.297Z,0
2017-04-18T01:54:01.330Z,0
2017-04-18T01:55:12.346Z,0
2017-04-18T01:56:23.383Z,0
2017-04-18T01:57:34.401Z,0
2017-04-18T01:58:45.631Z,0
2017-04-18T01:59:57.069Z,0
2017-04-18T02:01:08.565Z,0
2017-04-18T02:02:19.600Z,0
2017-04-18T02:03:30.619Z,0
2017-04-18T02:04:41.655Z,0
2017-04-18T02:05:52.881Z,0
2017-04-18T02:07:03.903Z,0
2017-04-18T02:08:14.944Z,0
2017-04-18T02:09:25.984Z,0
2017-04-18T02:10:37.021Z,0
2017-04-18T02:11:48.099Z,0
2017-04-18T02:12:59.131Z,0
2017-04-18T02:14:10.162Z,0
2017-04-18T02:15:21.221Z,0
2017-04-18T02:16:32.283Z,0
2017-04-18T02:17:43.320Z,0
2017-04-18T02:18:54.359Z,0
2017-04-18T02:20:05.395Z,0
2017-04-18T02:21:16.418Z,0
2017-04-18T02:22:27.493Z,0
2017-04-18T02:23:38.522Z,0
2017-04-18T02:24:49.945Z,0
2017-04-18T02:26:00.978Z,0
2017-04-18T02:27:12.001Z,0
2017-04-18T02:28:23.282Z,0
2017-04-18T02:29:34.302Z,0
2017-04-18T02:30:45.327Z,0
2017-04-18T02:31:56.343Z,0
2017-04-18T02:33:07.370Z,0
2017-04-18T02:34:18.401Z,0
2017-04-18T02:35:29.428Z,0
2017-04-18T02:36:40.653Z,0
2017-04-18T02:37:51.692Z,0
2017-04-18T02:39:03.371Z,0
2017-04-18T02:40:14.402Z,0
2017-04-18T02:41:25.638Z,0
2017-04-18T02:42:37.103Z,0
2017-04-18T02:43:48.336Z,0
2017-04-18T02:44:59.358Z,0
2017-04-18T02:46:10.380Z,0
2017-04-18T02:47:21.405Z,0
2017-04-18T02:48:32.435Z,0
2017-04-18T02:49:43.902Z,0
2017-04-18T02:50:54.926Z,0
2017-04-18T02:52:05.953Z,0
2017-04-18T02:53:16.981Z,0
2017-04-18T02:54:28.232Z,0
2017-04-18T02:55:39.249Z,0
2017-04-18T02:56:50.303Z,0
2017-04-18T02:58:01.331Z,0
2017-04-18T02:59:12.358Z,0
2017-04-18T03:00:23.371Z,0
2017-04-18T03:01:34.405Z,0
2017-04-18T03:02:45.440Z,0
2017-04-18T03:03:56.455Z,0
2017-04-18T03:05:07.690Z,0
2017-04-18T03:06:18.714Z,0
2017-04-18T03:07:29.748Z,0
2017-04-18T03:08:40.794Z,0
2017-04-18T03:09:51.809Z,0
2017-04-18T03:11:03.091Z,0
2017-04-18T03:12:14.164Z,0
2017-04-18T03:13:25.196Z,0
2017-04-18T03:14:36.736Z,0
2017-04-18T03:15:47.756Z,0
2017-04-18T03:16:58.790Z,0
2017-04-18T03:18:09.817Z,0
2017-04-18T03:19:20.847Z,0
2017-04-18T03:20:32.069Z,0
2017-04-18T03:21:43.150Z,0
2017-04-18T03:22:54.177Z,0
2017-04-18T03:24:05.207Z,0
2017-04-18T03:25:16.433Z,0
2017-04-18T03:26:27.465Z,0
2017-04-18T03:27:38.485Z,0
2017-04-18T03:28:49.516Z,0
2017-04-18T03:30:00.544Z,0
2017-04-18T03:31:11.554Z,0
2017-04-18T03:32:22.825Z,0
2017-04-18T03:33:34.051Z,0
2017-04-18T03:34:45.085Z,0
2017-04-18T03:35:56.096Z,0
2017-04-18T03:37:07.319Z,0
2017-04-18T03:38:18.419Z,0
2017-04-18T03:39:29.936Z,0
2017-04-18T03:40:41.242Z,0
2017-04-18T03:41:52.474Z,0
2017-04-18T03:43:03.554Z,0
2017-04-18T03:44:14.985Z,0
2017-04-18T03:45:26.011Z,0
2017-04-18T03:46:37.026Z,0
2017-04-18T03:47:48.052Z,0
2017-04-18T03:48:59.138Z,0
2017-04-18T03:50:10.160Z,0
2017-04-18T03:51:21.197Z,0
2017-04-18T03:52:32.217Z,0
2017-04-18T03:53:43.250Z,0
2017-04-18T03:54:54.292Z,0
2017-04-18T03:56:05.318Z,0
2017-04-18T03:57:16.338Z,0
2017-04-18T03:58:27.378Z,0
2017-04-18T03:59:38.441Z,0
2017-04-18T04:00:49.667Z,0
2017-04-18T04:02:00.895Z,0
2017-04-18T04:03:11.926Z,0
2017-04-18T04:04:23.253Z,0
2017-04-18T04:05:34.675Z,0
2017-04-18T04:06:46.133Z,0
2017-04-18T04:07:57.157Z,0
2017-04-18T04:09:08.188Z,0
2017-04-18T04:10:19.268Z,0
2017-04-18T04:11:30.507Z,0
2017-04-18T04:12:41.528Z,0
2017-04-18T04:13:52.767Z,0
2017-04-18T04:15:03.800Z,0
2017-04-18T04:16:15.053Z,0
2017-04-18T04:17:26.067Z,0
2017-04-18T04:18:37.089Z,0
2017-04-18T04:19:48.302Z,5
2017-04-18T04:20:59.379Z,5
2017-04-18T04:22:10.408Z,5
2017-04-18T04:23:21.440Z,5
2017-04-18T04:24:32.675Z,10
2017-04-18T04:25:43.702Z,10
2017-04-18T04:26:54.736Z,10
2017-04-18T04:28:05.766Z,10
2017-04-18T04:29:17.195Z,15
2017-04-18T04:30:28.613Z,15
2017-04-18T04:31:40.001Z,15
2017-04-18T04:32:51.018Z,20
2017-04-18T04:34:02.073Z,20
2017-04-18T04:35:13.090Z,20
2017-04-18T04:36:24.343Z,25
2017-04-18T04:37:35.491Z,25
2017-04-18T04:38:46.516Z,30
2017-04-18T04:39:57.539Z,30
2017-04-18T04:41:08.763Z,35
2017-04-18T04:42:19.845Z,35
2017-04-18T04:43:30.863Z,35
2017-04-18T04:44:41.880Z,35
2017-04-18T04:45:52.911Z,35
2017-04-18T04:47:03.948Z,40
2017-04-18T04:48:14.964Z,40
2017-04-18T04:49:25.994Z,40
2017-04-18T04:50:37.017Z,40
2017-04-18T04:51:48.073Z,45
2017-04-18T04:52:59.157Z,45
2017-04-18T04:54:10.187Z,50
2017-04-18T04:55:21.193Z,55
2017-04-18T04:56:32.222Z,55
2017-04-18T04:57:43.254Z,60
2017-04-18T04:58:54.376Z,60
2017-04-18T05:00:05.397Z,70
2017-04-18T05:01:16.418Z,65
2017-04-18T05:02:27.645Z,65
2017-04-18T05:03:38.714Z,65
2017-04-18T05:04:49.882Z,65
2017-04-18T05:06:00.906Z,65
2017-04-18T05:07:11.940Z,60
2017-04-18T05:08:23.025Z,60
2017-04-18T05:09:34.097Z,65
2017-04-18T05:10:45.327Z,65
2017-04-18T05:11:56.348Z,70
2017-04-18T05:13:07.371Z,75
2017-04-18T05:14:18.599Z,75
2017-04-18T05:15:29.615Z,80
2017-04-18T05:16:40.679Z,85
2017-04-18T05:17:51.711Z,90
2017-04-18T05:19:02.736Z,90
2017-04-18T05:20:13.813Z,90
2017-04-18T05:21:25.239Z,90
2017-04-18T05:22:36.464Z,75
2017-04-18T05:23:47.697Z,70
2017-04-18T05:24:58.713Z,70
2017-04-18T05:26:09.831Z,75
2017-04-18T05:27:21.058Z,90
2017-04-18T05:28:32.285Z,95
2017-04-18T05:29:43.302Z,105
2017-04-18T05:30:54.371Z,100
2017-04-18T05:32:05.390Z,95
2017-04-18T05:33:16.420Z,85
2017-04-18T05:34:27.439Z,85
2017-04-18T05:35:38.486Z,90
2017-04-18T05:36:49.548Z,90
2017-04-18T05:38:00.586Z,90
2017-04-18T05:39:11.620Z,115
2017-04-18T05:40:22.645Z,125
2017-04-18T05:41:33.725Z,115
2017-04-18T05:42:44.755Z,115
2017-04-18T05:43:55.785Z,110
2017-04-18T05:45:07.084Z,105
2017-04-18T05:46:18.109Z,100
2017-04-18T05:47:29.138Z,120
2017-04-18T05:48:40.152Z,125
2017-04-18T05:49:51.159Z,145
2017-04-18T05:51:02.191Z,165
2017-04-18T05:52:13.260Z,175
2017-04-18T05:53:24.291Z,210
2017-04-18T05:54:35.327Z,195
2017-04-18T05:55:46.351Z,165
2017-04-18T05:56:57.579Z,145
2017-04-18T05:58:08.610Z,145
2017-04-18T05:59:19.851Z,165
2017-04-18T06:00:30.872Z,210
2017-04-18T06:01:41.904Z,245
2017-04-18T06:02:52.985Z,275
2017-04-18T06:04:04.005Z,280
2017-04-18T06:05:15.062Z,265
2017-04-18T06:06:26.101Z,235
2017-04-18T06:07:37.135Z,210
2017-04-18T06:08:48.372Z,230
2017-04-18T06:09:59.392Z,240
2017-04-18T06:11:10.411Z,255
2017-04-18T06:12:21.449Z,260
2017-04-18T06:13:32.735Z,245
2017-04-18T06:14:43.746Z,230
2017-04-18T06:15:55.158Z,245
2017-04-18T06:17:06.191Z,245
2017-04-18T06:18:17.222Z,250
2017-04-18T06:19:28.417Z,240
2017-04-18T06:20:39.446Z,225
2017-04-18T06:21:50.472Z,230
2017-04-18T06:23:01.504Z,260
2017-04-18T06:24:12.786Z,285
2017-04-18T06:25:23.857Z,310
2017-04-18T06:26:34.887Z,370
2017-04-18T06:27:45.929Z,365
2017-04-18T06:28:56.968Z,325
2017-04-18T06:30:08.211Z,330
2017-04-18T06:31:19.236Z,350
2017-04-18T06:32:30.256Z,405
2017-04-18T06:33:41.292Z,1310
2017-04-18T06:34:52.327Z,1660
2017-04-18T06:36:03.583Z,1930
2017-04-18T06:37:14.606Z,2095
2017-04-18T06:38:25.834Z,1765
2017-04-18T06:39:36.868Z,1810
2017-04-18T06:40:48.098Z,2310
2017-04-18T06:41:59.128Z,995
2017-04-18T06:43:10.359Z,1270
2017-04-18T06:44:21.590Z,1650
2017-04-18T06:45:32.668Z,1270
2017-04-18T06:46:43.700Z,950
2017-04-18T06:47:54.965Z,975
2017-04-18T06:49:06.000Z,2605
2017-04-18T06:50:17.235Z,2485
2017-04-18T06:51:28.525Z,2230
2017-04-18T06:52:39.699Z,2230
2017-04-18T06:53:50.992Z,2455
2017-04-18T06:55:02.324Z,1760
2017-04-18T06:56:13.417Z,2260
2017-04-18T06:57:24.455Z,1475
2017-04-18T06:58:35.499Z,1595
2017-04-18T06:59:46.735Z,885
2017-04-18T07:00:57.788Z,665
2017-04-18T07:02:08.810Z,2030
2017-04-18T07:03:19.858Z,1610
2017-04-18T07:04:30.895Z,485
2017-04-18T07:05:41.933Z,1575
2017-04-18T07:06:53.015Z,420
2017-04-18T07:08:04.048Z,390
2017-04-18T07:09:15.076Z,380
2017-04-18T07:10:26.110Z,380
2017-04-18T07:11:37.135Z,370
2017-04-18T07:12:48.431Z,360
2017-04-18T07:13:59.461Z,350
2017-04-18T07:15:10.489Z,345
2017-04-18T07:16:21.531Z,345
2017-04-18T07:17:32.556Z,365
2017-04-18T07:18:43.603Z,445
2017-04-18T07:19:54.943Z,615
2017-04-18T07:21:06.022Z,565
2017-04-18T07:22:17.272Z,880
2017-04-18T07:23:28.575Z,2060
2017-04-18T07:24:39.609Z,1435
2017-04-18T07:25:50.636Z,2615
2017-04-18T07:27:01.860Z,2640
2017-04-18T07:28:12.889Z,2670
2017-04-18T07:29:23.938Z,805
2017-04-18T07:30:35.169Z,710
2017-04-18T07:31:46.391Z,660
2017-04-18T07:32:57.423Z,480
2017-04-18T07:34:08.902Z,390
2017-04-18T07:35:19.940Z,365
2017-04-18T07:36:30.978Z,380
2017-04-18T07:37:42.228Z,390
2017-04-18T07:38:53.458Z,350
2017-04-18T07:40:04.694Z,295
2017-04-18T07:41:15.733Z,295
2017-04-18T07:42:26.766Z,310
2017-04-18T07:43:37.997Z,330
2017-04-18T07:44:49.471Z,330
2017-04-18T07:46:00.702Z,320
2017-04-18T07:47:11.736Z,305
2017-04-18T07:48:22.900Z,310
2017-04-18T07:49:33.936Z,300
2017-04-18T07:50:45.028Z,280
2017-04-18T07:51:56.057Z,250
2017-04-18T07:53:07.082Z,235
2017-04-18T07:54:18.123Z,250
2017-04-18T07:55:29.165Z,270
2017-04-18T07:56:54.941Z,285
2017-04-18T07:58:06.392Z,300
2017-04-18T07:59:17.435Z,315
2017-04-18T08:00:28.473Z,335
2017-04-18T08:01:39.807Z,340
2017-04-18T08:02:50.845Z,320
2017-04-18T08:04:01.861Z,290
2017-04-18T08:05:12.891Z,290
2017-04-18T08:06:23.925Z,320
2017-04-18T08:07:34.964Z,345
2017-04-18T08:08:46.004Z,400
2017-04-18T08:09:57.094Z,430
2017-04-18T08:11:08.188Z,520
2017-04-18T08:12:19.665Z,310
2017-04-18T08:13:30.719Z,305
2017-04-18T08:14:41.748Z,280
2017-04-18T08:15:52.774Z,265
2017-04-18T08:17:04.012Z,230
2017-04-18T08:18:15.243Z,200
2017-04-18T08:19:26.269Z,165
2017-04-18T08:20:37.321Z,130
2017-04-18T08:21:48.351Z,120
2017-04-18T08:22:59.592Z,120
2017-04-18T08:24:10.634Z,135
2017-04-18T08:25:21.651Z,160
2017-04-18T08:26:32.887Z,185
2017-04-18T08:27:43.918Z,225
2017-04-18T08:28:54.945Z,245
2017-04-18T08:30:06.478Z,245
2017-04-18T08:31:17.496Z,255
2017-04-18T08:32:28.575Z,245
2017-04-18T08:33:39.856Z,230
2017-04-18T08:34:50.892Z,220
2017-04-18T08:36:01.917Z,215
2017-04-18T08:37:12.950Z,215
2017-04-18T08:38:23.980Z,215
2017-04-18T08:39:35.011Z,205
2017-04-18T08:40:46.230Z,200
2017-04-18T08:41:57.259Z,170
2017-04-18T08:43:08.288Z,155
2017-04-18T08:44:19.553Z,145
2017-04-18T08:45:30.570Z,135
2017-04-18T08:46:41.804Z,120
2017-04-18T08:47:53.065Z,100
2017-04-18T08:49:04.097Z,90
2017-04-18T08:50:15.126Z,85
2017-04-18T08:51:26.145Z,80
2017-04-18T08:52:37.361Z,85
2017-04-18T08:53:48.406Z,90
2017-04-18T08:54:59.486Z,105
2017-04-18T08:56:10.517Z,110
2017-04-18T08:57:21.740Z,110
2017-04-18T08:58:32.972Z,110
2017-04-18T08:59:44.202Z,100
2017-04-18T09:00:55.228Z,85
2017-04-18T09:02:06.269Z,75
2017-04-18T09:03:17.295Z,65
2017-04-18T09:04:28.328Z,60
2017-04-18T09:05:39.354Z,55
2017-04-18T09:06:50.386Z,65
2017-04-18T09:08:01.620Z,100
2017-04-18T09:09:12.645Z,150
2017-04-18T09:10:23.916Z,245
2017-04-18T09:11:34.942Z,345
2017-04-18T09:12:45.968Z,410
2017-04-18T09:13:56.985Z,510
2017-04-18T09:15:08.015Z,630
2017-04-18T09:16:19.119Z,775
2017-04-18T09:17:30.146Z,1475
2017-04-18T09:18:41.210Z,1465
2017-04-18T09:19:52.228Z,1090
2017-04-18T09:21:03.710Z,1055
2017-04-18T09:22:14.752Z,1170
2017-04-18T09:23:25.779Z,1145
2017-04-18T09:24:36.808Z,1100
2017-04-18T09:25:47.841Z,1100
2017-04-18T09:26:58.862Z,1495
2017-04-18T09:28:09.898Z,1115
2017-04-18T09:29:20.971Z,1325
2017-04-18T09:30:32.195Z,2395
2017-04-18T09:31:43.287Z,950
2017-04-18T09:32:54.312Z,1790
2017-04-18T09:34:05.341Z,855
2017-04-18T09:35:16.388Z,1075
2017-04-18T09:36:27.417Z,1765
2017-04-18T09:37:38.498Z,640
2017-04-18T09:38:49.524Z,480
2017-04-18T09:40:00.767Z,460
2017-04-18T09:41:11.810Z,560
2017-04-18T09:42:23.068Z,685
2017-04-18T09:43:34.299Z,785
2017-04-18T09:44:45.321Z,860
2017-04-18T09:45:56.360Z,2450
2017-04-18T09:47:07.394Z,1855
2017-04-18T09:48:18.485Z,1190
2017-04-18T09:49:29.512Z,860
2017-04-18T09:50:40.540Z,700
2017-04-18T09:51:51.571Z,565
2017-04-18T09:53:02.601Z,540
2017-04-18T09:54:13.832Z,605
2017-04-18T09:55:25.061Z,775
2017-04-18T09:56:36.288Z,1205
2017-04-18T09:57:47.519Z,815
2017-04-18T09:58:58.810Z,1090
2017-04-18T10:00:09.840Z,1190
2017-04-18T10:01:20.975Z,1905
2017-04-18T10:02:32.167Z,1025
2017-04-18T10:03:43.414Z,2080
2017-04-18T10:04:54.457Z,935
2017-04-18T10:06:05.481Z,1410
2017-04-18T10:07:16.507Z,1240
2017-04-18T10:08:27.746Z,1685
2017-04-18T10:09:39.028Z,2435
2017-04-18T10:10:50.262Z,2565
2017-04-18T10:12:01.509Z,2530
2017-04-18T10:13:12.748Z,2605
2017-04-18T10:14:23.779Z,2495
2017-04-18T10:15:35.016Z,2460
2017-04-18T10:16:46.053Z,2580
2017-04-18T10:17:57.093Z,2610
2017-04-18T10:19:08.141Z,1490
2017-04-18T10:20:19.373Z,760
2017-04-18T10:21:30.437Z,400
2017-04-18T10:22:41.688Z,300
2017-04-18T10:23:52.733Z,250
2017-04-18T10:25:03.875Z,235
2017-04-18T10:26:15.173Z,245
2017-04-18T10:27:26.207Z,290
2017-04-18T10:28:37.450Z,355
2017-04-18T10:29:48.488Z,425
2017-04-18T10:30:59.590Z,520
2017-04-18T10:32:10.627Z,2345
2017-04-18T10:33:21.721Z,790
2017-04-18T10:34:32.765Z,2425
2017-04-18T10:35:43.809Z,2460
2017-04-18T10:36:55.045Z,2190
2017-04-18T10:38:06.504Z,1345
2017-04-18T10:39:17.544Z,1580
2017-04-18T10:40:28.568Z,1080
2017-04-18T10:41:39.651Z,880
2017-04-18T10:42:50.691Z,850
2017-04-18T10:44:01.733Z,520
2017-04-18T10:45:12.781Z,395
2017-04-18T10:46:23.819Z,335
2017-04-18T10:47:34.858Z,305
2017-04-18T10:48:45.906Z,300
2017-04-18T10:49:57.146Z,315
2017-04-18T10:51:08.183Z,360
2017-04-18T10:52:19.474Z,445
2017-04-18T10:53:30.499Z,595
2017-04-18T10:54:41.527Z,1450
2017-04-18T10:55:52.556Z,1275
2017-04-18T10:57:03.786Z,740
2017-04-18T10:58:14.833Z,620
2017-04-18T10:59:25.877Z,650
2017-04-18T11:00:36.914Z,790
2017-04-18T11:01:47.950Z,710
2017-04-18T11:02:58.989Z,735
2017-04-18T11:04:10.022Z,585
2017-04-18T11:05:21.085Z,460
2017-04-18T11:06:32.117Z,385
2017-04-18T11:07:43.164Z,325
2017-04-18T11:08:54.452Z,285
2017-04-18T11:10:05.679Z,240
2017-04-18T11:11:16.710Z,200
2017-04-18T11:12:27.774Z,170
2017-04-18T11:13:38.827Z,165
2017-04-18T11:14:49.854Z,180
2017-04-18T11:16:01.127Z,200
2017-04-18T11:17:12.176Z,230
2017-04-18T11:18:23.240Z,250
2017-04-18T11:19:34.322Z,265
2017-04-18T11:20:45.549Z,270
2017-04-18T11:21:56.575Z,270
2017-04-18T11:23:07.648Z,265
2017-04-18T11:24:18.681Z,255
2017-04-18T11:25:29.916Z,240
2017-04-18T11:26:40.938Z,225
2017-04-18T11:27:51.976Z,205
2017-04-18T11:29:03.012Z,195
2017-04-18T11:30:14.049Z,200
2017-04-18T11:31:25.074Z,205
2017-04-18T11:32:36.117Z,200
2017-04-18T11:33:47.149Z,200
2017-04-18T11:34:58.431Z,215
2017-04-18T11:36:09.459Z,230
2017-04-18T11:37:20.913Z,225
2017-04-18T11:38:32.388Z,225
2017-04-18T11:39:43.625Z,245
2017-04-18T11:40:54.679Z,285
2017-04-18T11:42:05.715Z,345
2017-04-18T11:43:16.934Z,395
2017-04-18T11:44:27.976Z,415
2017-04-18T11:45:39.263Z,445
2017-04-18T11:46:50.291Z,460
2017-04-18T11:48:01.725Z,460
2017-04-18T11:49:12.957Z,460
2017-04-18T11:50:23.988Z,450
2017-04-18T11:51:35.010Z,450
2017-04-18T11:52:46.035Z,435
2017-04-18T11:53:57.076Z,415
2017-04-18T11:55:08.111Z,390
2017-04-18T11:56:19.197Z,355
2017-04-18T11:57:30.229Z,330
2017-04-18T11:58:41.260Z,330
2017-04-18T11:59:52.284Z,355
2017-04-18T12:01:03.326Z,410
2017-04-18T12:02:14.477Z,460
2017-04-18T12:03:25.503Z,430
2017-04-18T12:04:36.597Z,370
2017-04-18T12:05:47.621Z,350
2017-04-18T12:06:58.708Z,385
2017-04-18T12:08:09.737Z,465
2017-04-18T12:09:20.766Z,530
2017-04-18T12:10:31.808Z,575
2017-04-18T12:11:42.843Z,635
2017-04-18T12:12:54.066Z,600
2017-04-18T12:14:05.099Z,575
2017-04-18T12:15:16.128Z,765
2017-04-18T12:16:27.159Z,715
2017-04-18T12:17:38.181Z,605
2017-04-18T12:18:49.405Z,495
2017-04-18T12:20:00.439Z,590
2017-04-18T12:21:11.480Z,865
2017-04-18T12:22:22.711Z,640
2017-04-18T12:23:33.734Z,565
2017-04-18T12:24:44.809Z,575
2017-04-18T12:25:55.861Z,595
2017-04-18T12:27:07.288Z,585
2017-04-18T12:28:18.618Z,565
2017-04-18T12:29:29.899Z,565
2017-04-18T12:30:40.918Z,550
2017-04-18T12:31:52.164Z,525
2017-04-18T12:33:03.388Z,510
2017-04-18T12:34:14.420Z,475
2017-04-18T12:35:25.657Z,430
2017-04-18T12:36:36.692Z,390
2017-04-18T12:37:47.714Z,345
2017-04-18T12:38:58.799Z,310
2017-04-18T12:40:09.836Z,295
2017-04-18T12:41:21.071Z,285
2017-04-18T12:42:32.112Z,275
2017-04-18T12:43:43.130Z,260
2017-04-18T12:44:54.167Z,230
2017-04-18T12:46:05.194Z,185
2017-04-18T12:47:16.356Z,155
2017-04-18T12:48:27.553Z,180
2017-04-18T12:49:38.793Z,240
2017-04-18T12:50:50.126Z,275
2017-04-18T12:52:01.370Z,290
2017-04-18T12:53:12.391Z,295
2017-04-18T12:54:23.622Z,305
2017-04-18T12:55:34.651Z,325
2017-04-18T12:56:45.689Z,360
2017-04-18T12:57:56.917Z,455
2017-04-18T12:59:08.151Z,690
2017-04-18T13:00:19.173Z,720
2017-04-18T13:01:30.677Z,725
2017-04-18T13:02:41.703Z,625
2017-04-18T13:03:52.724Z,440
2017-04-18T13:05:03.743Z,390
2017-04-18T13:06:14.824Z,345
2017-04-18T13:07:25.890Z,330
2017-04-18T13:08:36.918Z,320
2017-04-18T13:09:47.977Z,320
2017-04-18T13:10:59.129Z,310
2017-04-18T13:12:10.161Z,320
2017-04-18T13:13:21.181Z,380
2017-04-18T13:14:32.418Z,535
2017-04-18T13:15:43.441Z,495
2017-04-18T13:16:54.733Z,470
2017-04-18T13:18:05.779Z,470
2017-04-18T13:19:16.805Z,480
2017-04-18T13:20:27.826Z,500
2017-04-18T13:21:38.859Z,525
2017-04-18T13:22:49.907Z,545
2017-04-18T13:24:00.946Z,575
2017-04-18T13:25:11.971Z,570
2017-04-18T13:26:23.005Z,650
2017-04-18T13:27:34.294Z,635
2017-04-18T13:28:45.367Z,615
2017-04-18T13:29:56.444Z,570
2017-04-18T13:31:07.483Z,565
2017-04-18T13:32:18.516Z,685
2017-04-18T13:33:29.539Z,680
2017-04-18T13:34:40.575Z,690
2017-04-18T13:35:51.607Z,690
2017-04-18T13:37:02.638Z,575
2017-04-18T13:38:13.867Z,630
2017-04-18T13:39:25.093Z,580
2017-04-18T13:40:36.515Z,540
2017-04-18T13:41:47.553Z,365
2017-04-18T13:42:58.586Z,255
2017-04-18T13:44:09.660Z,165
2017-04-18T13:45:20.698Z,135
2017-04-18T13:46:31.734Z,135
2017-04-18T13:47:42.968Z,150
2017-04-18T13:48:54.017Z,160
2017-04-18T13:50:05.054Z,180
2017-04-18T13:51:16.090Z,205
2017-04-18T13:52:27.253Z,215
2017-04-18T13:53:38.649Z,240
2017-04-18T13:54:49.745Z,280
2017-04-18T13:56:00.760Z,335
2017-04-18T13:57:11.785Z,325
2017-04-18T13:58:22.804Z,325
2017-04-18T13:59:33.844Z,325
2017-04-18T14:00:44.875Z,350
2017-04-18T14:01:55.900Z,355
2017-04-18T14:03:06.928Z,365
2017-04-18T14:04:18.155Z,355
2017-04-18T14:05:29.439Z,360
2017-04-18T14:06:40.473Z,390
2017-04-18T14:07:51.699Z,410
2017-04-18T14:09:02.931Z,455
2017-04-18T14:10:13.957Z,430
2017-04-18T14:11:24.980Z,525
2017-04-18T14:12:36.130Z,400
2017-04-18T14:13:47.160Z,415
2017-04-18T14:14:58.198Z,450
2017-04-18T14:16:09.225Z,540
2017-04-18T14:17:20.299Z,765
2017-04-18T14:18:31.532Z,775
2017-04-18T14:19:42.557Z,465
2017-04-18T14:20:53.778Z,720
2017-04-18T14:22:04.871Z,485
2017-04-18T14:23:15.908Z,395
2017-04-18T14:24:27.133Z,630
2017-04-18T14:25:38.158Z,425
2017-04-18T14:26:49.195Z,665
2017-04-18T14:28:00.216Z,455
2017-04-18T14:29:11.442Z,560
2017-04-18T14:30:22.478Z,475
2017-04-18T14:31:33.710Z,480
2017-04-18T14:32:44.790Z,465
2017-04-18T14:33:55.820Z,450
2017-04-18T14:35:07.249Z,425
2017-04-18T14:36:18.284Z,405
2017-04-18T14:37:29.307Z,400
2017-04-18T14:38:40.338Z,390
2017-04-18T14:39:51.371Z,365
2017-04-18T14:41:02.607Z,350
2017-04-18T14:42:13.634Z,345
2017-04-18T14:43:24.920Z,360
2017-04-18T14:44:35.944Z,365
2017-04-18T14:45:46.970Z,375
2017-04-18T14:46:58.209Z,385
2017-04-18T14:48:09.248Z,345
2017-04-18T14:49:20.286Z,380
2017-04-18T14:50:31.343Z,350
2017-04-18T14:51:42.366Z,320
2017-04-18T14:52:53.588Z,290
2017-04-18T14:54:04.626Z,225
2017-04-18T14:55:15.652Z,210
2017-04-18T14:56:26.790Z,210
2017-04-18T14:57:37.855Z,210
2017-04-18T14:58:48.887Z,205
2017-04-18T15:00:00.181Z,205
2017-04-18T15:01:11.411Z,210
2017-04-18T15:02:22.435Z,220
2017-04-18T15:03:33.475Z,225
2017-04-18T15:04:44.502Z,230
2017-04-18T15:05:55.526Z,230
2017-04-18T15:07:06.592Z,235
2017-04-18T15:08:17.620Z,245
2017-04-18T15:09:28.655Z,250
2017-04-18T15:10:39.727Z,255
2017-04-18T15:11:50.964Z,255
2017-04-18T15:13:01.999Z,250
2017-04-18T15:14:13.020Z,250
2017-04-18T15:15:24.055Z,245
2017-04-18T15:16:35.262Z,285
2017-04-18T15:17:46.279Z,260
2017-04-18T15:18:57.349Z,230
2017-04-18T15:20:08.386Z,235
2017-04-18T15:21:19.462Z,240
2017-04-18T15:22:30.502Z,250
2017-04-18T15:23:41.526Z,235
2017-04-18T15:24:52.577Z,240
2017-04-18T15:26:03.617Z,235
2017-04-18T15:27:14.698Z,235
2017-04-18T15:28:25.724Z,235
2017-04-18T15:29:36.764Z,230
2017-04-18T15:30:47.785Z,235
2017-04-18T15:31:59.025Z,230
2017-04-18T15:33:10.050Z,230
2017-04-18T15:34:21.078Z,245
2017-04-18T15:35:32.106Z,240
2017-04-18T15:36:43.128Z,245
2017-04-18T15:37:54.206Z,250
2017-04-18T15:39:05.250Z,250
2017-04-18T15:40:16.287Z,240
2017-04-18T15:41:27.311Z,235
2017-04-18T15:42:38.335Z,225
2017-04-18T15:43:49.756Z,215
2017-04-18T15:45:00.978Z,210
2017-04-18T15:46:11.998Z,205
2017-04-18T15:47:23.011Z,205
2017-04-18T15:48:34.102Z,205
2017-04-18T15:49:45.143Z,210
2017-04-18T15:50:56.160Z,210
2017-04-18T15:52:07.393Z,215
2017-04-18T15:53:18.422Z,215
2017-04-18T15:54:29.446Z,220
2017-04-18T15:55:40.472Z,220
2017-04-18T15:56:51.504Z,220
2017-04-18T15:58:02.532Z,215
2017-04-18T15:59:13.642Z,215
2017-04-18T16:00:24.804Z,210
2017-04-18T16:01:35.947Z,210
2017-04-18T16:02:46.974Z,210
2017-04-18T16:03:57.985Z,210
2017-04-18T16:05:09.463Z,210
2017-04-18T16:06:20.499Z,210
2017-04-18T16:07:31.542Z,210
2017-04-18T16:08:42.558Z,205
2017-04-18T16:09:53.599Z,205
2017-04-18T16:11:04.629Z,210
2017-04-18T16:12:15.656Z,210
2017-04-18T16:13:26.683Z,235
2017-04-18T16:14:37.703Z,250
2017-04-18T16:15:48.975Z,215
2017-04-18T16:17:00.202Z,195
2017-04-18T16:18:11.229Z,190
2017-04-18T16:19:22.257Z,180
2017-04-18T16:20:33.286Z,180
2017-04-18T16:21:44.312Z,175
2017-04-18T16:22:55.600Z,190
2017-04-18T16:24:06.819Z,180
2017-04-18T16:25:17.848Z,180
2017-04-18T16:26:28.874Z,175
2017-04-18T16:27:39.907Z,175
2017-04-18T16:28:50.946Z,190
2017-04-18T16:30:02.007Z,190
2017-04-18T16:31:13.230Z,185
2017-04-18T16:32:24.468Z,190
2017-04-18T16:33:35.500Z,155
2017-04-18T16:34:46.735Z,145
2017-04-18T16:35:57.756Z,135
2017-04-18T16:37:08.833Z,135